createdAt,value
2017-01-21T00:00:29.970Z,54.91
2017-01-21T00:01:38.962Z,54.24
2017-01-21T00:02:47.959Z,54.89
2017-01-21T00:03:56.944Z,54.12
2017-01-21T00:05:05.931Z,54.22
2017-01-21T00:06:14.927Z,54.09
2017-01-21T00:07:23.929Z,54.09
2017-01-21T00:08:32.913Z,53.9
2017-01-21T00:09:41.906Z,54.09
2017-01-21T00:10:50.897Z,54.38
2017-01-21T00:11:59.884Z,54.74
2017-01-21T00:13:08.864Z,54.55
2017-01-21T00:14:17.859Z,54.45
2017-01-21T00:15:26.868Z,54.13
2017-01-21T00:16:35.863Z,54.42
2017-01-21T00:17:44.849Z,54.33
2017-01-21T00:18:53.852Z,54.42
2017-01-21T00:20:02.839Z,54.88
2017-01-21T00:21:11.825Z,54.68
2017-01-21T00:22:20.821Z,54.78
2017-01-21T00:23:29.807Z,55.07
2017-01-21T00:24:38.809Z,55.07
2017-01-21T00:25:47.810Z,55.13
2017-01-21T00:26:56.795Z,55.23
2017-01-21T00:28:05.776Z,55.23
2017-01-21T00:29:14.775Z,55.33
2017-01-21T00:30:23.767Z,55.23
2017-01-21T00:31:32.753Z,55.23
2017-01-21T00:32:41.735Z,55.52
2017-01-21T00:33:50.767Z,55.71
2017-01-21T00:34:59.760Z,55.78
2017-01-21T00:36:08.749Z,56.07
2017-01-21T00:37:17.781Z,55.62
2017-01-21T00:38:26.780Z,55.58
2017-01-21T00:39:35.774Z,55.68
2017-01-21T00:40:44.761Z,55.87
2017-01-21T00:41:53.747Z,55.68
2017-01-21T00:43:02.738Z,55.21
2017-01-21T00:44:11.726Z,54.94
2017-01-21T00:45:20.711Z,55.13
2017-01-21T00:46:29.696Z,54.75
2017-01-21T00:47:38.686Z,54.75
2017-01-21T00:48:47.677Z,54.37
2017-01-21T00:49:56.660Z,54.46
2017-01-21T00:51:05.642Z,54.27
2017-01-21T00:52:14.624Z,54.27
2017-01-21T00:53:23.610Z,53.99
2017-01-21T00:54:32.591Z,54.56
2017-01-21T00:55:41.580Z,54.85
2017-01-21T00:56:50.580Z,55.13
2017-01-21T00:57:59.558Z,54.66
2017-01-21T00:59:08.555Z,54.94
2017-01-21T01:00:17.549Z,54.94
2017-01-21T01:01:26.528Z,55.01
2017-01-21T01:02:35.518Z,55.3
2017-01-21T01:03:44.555Z,55.01
2017-01-21T01:04:53.548Z,54.66
2017-01-21T01:06:02.539Z,54.85
2017-01-21T01:07:11.538Z,55.04
2017-01-21T01:08:20.517Z,55.11
2017-01-21T01:09:29.515Z,55.49
2017-01-21T01:10:38.489Z,55.21
2017-01-21T01:11:47.479Z,55.21
2017-01-21T01:12:56.464Z,55.11
2017-01-21T01:14:05.447Z,55.3
2017-01-21T01:15:14.421Z,55.4
2017-01-21T01:16:23.409Z,55.3
2017-01-21T01:17:32.404Z,55.3
2017-01-21T01:18:41.388Z,55.21
2017-01-21T01:19:50.380Z,55.4
2017-01-21T01:20:59.358Z,55.3
2017-01-21T01:22:08.337Z,55.87
2017-01-21T01:23:17.328Z,55.68
2017-01-21T01:24:26.340Z,55.3
2017-01-21T01:25:35.334Z,54.91
2017-01-21T01:26:44.315Z,55.58
2017-01-21T01:27:53.321Z,55.87
2017-01-21T01:29:02.310Z,55.75
2017-01-21T01:30:11.303Z,55.75
2017-01-21T01:31:20.289Z,56.32
2017-01-21T01:32:29.276Z,55.85
2017-01-21T01:33:38.264Z,56.04
2017-01-21T01:34:47.251Z,55.27
2017-01-21T01:35:56.242Z,55.65
2017-01-21T01:37:05.223Z,55.75
2017-01-21T01:38:14.216Z,55.75
2017-01-21T01:39:23.186Z,55.75
2017-01-21T01:40:32.181Z,55.56
2017-01-21T01:41:41.172Z,55.85
2017-01-21T01:42:50.147Z,56.23
2017-01-21T01:43:59.134Z,55.75
2017-01-21T01:45:08.133Z,56.23
2017-01-21T01:46:17.117Z,55.65
2017-01-21T01:47:26.095Z,56.13
2017-01-21T01:48:35.082Z,55.85
2017-01-21T01:49:44.065Z,55.85
2017-01-21T01:50:53.046Z,55.75
2017-01-21T01:52:02.047Z,55.75
2017-01-21T01:53:11.033Z,56.32
2017-01-21T01:54:20.016Z,56.68
2017-01-21T01:55:29.005Z,56.97
2017-01-21T01:56:37.997Z,56.97
2017-01-21T01:57:46.980Z,56.97
2017-01-21T01:58:55.957Z,57.16
2017-01-21T02:00:04.946Z,56.87
2017-01-21T02:01:13.931Z,57.06
2017-01-21T02:02:22.922Z,56.77
2017-01-21T02:03:32.325Z,56.3
2017-01-21T02:04:41.320Z,56.68
2017-01-21T02:05:50.315Z,57.06
2017-01-21T02:06:59.323Z,57.06
2017-01-21T02:08:08.311Z,56.87
2017-01-21T02:09:17.297Z,56.97
2017-01-21T02:10:26.318Z,56.97
2017-01-21T02:11:35.297Z,56.59
2017-01-21T02:12:44.283Z,56.68
2017-01-21T02:13:53.270Z,56.49
2017-01-21T02:15:02.257Z,56.49
2017-01-21T02:16:11.237Z,56.59
2017-01-21T02:17:20.215Z,57.16
2017-01-21T02:18:29.206Z,56.59
2017-01-21T02:19:38.184Z,56.49
2017-01-21T02:20:47.171Z,56.68
2017-01-21T02:21:56.156Z,56.59
2017-01-21T02:23:05.138Z,56.59
2017-01-21T02:24:14.119Z,56.97
2017-01-21T02:25:23.110Z,56.77
2017-01-21T02:26:32.095Z,56.68
2017-01-21T02:27:41.065Z,56.97
2017-01-21T02:28:50.060Z,56.77
2017-01-21T02:29:59.039Z,56.65
2017-01-21T02:31:08.042Z,57.45
2017-01-21T02:32:17.026Z,57.32
2017-01-21T02:33:26.026Z,57.45
2017-01-21T02:34:35.019Z,57.35
2017-01-21T02:35:44.007Z,56.75
2017-01-21T02:36:52.993Z,56.94
2017-01-21T02:38:01.991Z,57.23
2017-01-21T02:39:10.982Z,57.23
2017-01-21T02:40:19.959Z,57.51
2017-01-21T02:41:28.948Z,57.32
2017-01-21T02:42:37.949Z,57.9
2017-01-21T02:43:46.926Z,57.61
2017-01-21T02:44:55.915Z,57.7
2017-01-21T02:46:04.896Z,58.37
2017-01-21T02:47:13.883Z,58.18
2017-01-21T02:48:22.864Z,58.09
2017-01-21T02:49:31.847Z,57.9
2017-01-21T02:50:40.835Z,57.7
2017-01-21T02:51:49.809Z,57.51
2017-01-21T02:52:58.795Z,57.61
2017-01-21T02:54:07.784Z,57.9
2017-01-21T02:55:16.774Z,58.28
2017-01-21T02:56:25.761Z,57.42
2017-01-21T02:57:34.755Z,58.28
2017-01-21T02:58:43.735Z,58.47
2017-01-21T02:59:52.712Z,57.9
2017-01-21T03:01:01.706Z,58.56
2017-01-21T03:02:10.701Z,58.37
2017-01-21T03:03:19.678Z,58.56
2017-01-21T03:04:28.668Z,58.28
2017-01-21T03:05:37.655Z,58.37
2017-01-21T03:06:46.643Z,58.09
2017-01-21T03:07:55.628Z,57.99
2017-01-21T03:09:04.613Z,58.56
2017-01-21T03:10:13.597Z,58.66
2017-01-21T03:11:22.581Z,58.66
2017-01-21T03:12:31.579Z,58.47
2017-01-21T03:13:40.576Z,58.37
2017-01-21T03:14:49.564Z,58.56
2017-01-21T03:15:58.554Z,58.56
2017-01-21T03:17:07.520Z,58.54
2017-01-21T03:18:16.506Z,58.63
2017-01-21T03:19:25.488Z,58.44
2017-01-21T03:20:34.473Z,58.56
2017-01-21T03:21:43.461Z,58.47
2017-01-21T03:22:52.461Z,58.44
2017-01-21T03:24:01.447Z,58.66
2017-01-21T03:25:10.427Z,58.34
2017-01-21T03:26:19.425Z,58.37
2017-01-21T03:27:28.404Z,58.54
2017-01-21T03:28:37.397Z,58.25
2017-01-21T03:29:46.421Z,58.25
2017-01-21T03:30:55.392Z,58.54
2017-01-21T03:32:04.370Z,58.63
2017-01-21T03:33:13.373Z,58.54
2017-01-21T03:34:22.362Z,58.63
2017-01-21T03:35:31.343Z,58.47
2017-01-21T03:36:40.328Z,58.54
2017-01-21T03:37:49.304Z,58.63
2017-01-21T03:38:58.292Z,58.54
2017-01-21T03:40:07.279Z,58.54
2017-01-21T03:41:16.272Z,58.63
2017-01-21T03:42:25.281Z,58.73
2017-01-21T03:43:34.271Z,58.44
2017-01-21T03:44:43.300Z,58.34
2017-01-21T03:45:52.287Z,58.63
2017-01-21T03:47:01.286Z,59.01
2017-01-21T03:48:10.264Z,58.83
2017-01-21T03:49:19.253Z,58.54
2017-01-21T03:50:28.295Z,58.83
2017-01-21T03:51:37.695Z,58.73
2017-01-21T03:52:46.682Z,59.01
2017-01-21T03:53:55.670Z,58.73
2017-01-21T03:55:04.663Z,59.11
2017-01-21T03:56:13.643Z,59.3
2017-01-21T03:57:22.631Z,59.2
2017-01-21T03:58:31.615Z,59.49
2017-01-21T03:59:40.624Z,59.4
2017-01-21T04:00:49.617Z,59.4
2017-01-21T04:01:58.635Z,59.69
2017-01-21T04:03:07.626Z,59.4
2017-01-21T04:04:16.602Z,59.11
2017-01-21T04:05:25.591Z,59.2
2017-01-21T04:06:34.578Z,59.2
2017-01-21T04:07:43.567Z,59.2
2017-01-21T04:08:52.555Z,59.3
2017-01-21T04:10:01.537Z,59.47
2017-01-21T04:11:10.549Z,59.49
2017-01-21T04:12:19.523Z,59.59
2017-01-21T04:13:28.514Z,59.59
2017-01-21T04:14:37.493Z,59.49
2017-01-21T04:15:46.472Z,59.75
2017-01-21T04:16:55.454Z,59.49
2017-01-21T04:18:04.439Z,59.59
2017-01-21T04:19:13.426Z,59.49
2017-01-21T04:20:22.415Z,59.56
2017-01-21T04:21:31.400Z,59.56
2017-01-21T04:22:40.421Z,59.49
2017-01-21T04:23:49.414Z,59.37
2017-01-21T04:24:58.385Z,59.66
2017-01-21T04:26:07.361Z,59.37
2017-01-21T04:27:16.339Z,59.66
2017-01-21T04:28:25.333Z,59.37
2017-01-21T04:29:34.325Z,59.47
2017-01-21T04:30:43.309Z,59.47
2017-01-21T04:31:52.295Z,59.75
2017-01-21T04:33:01.283Z,59.56
2017-01-21T04:34:10.271Z,59.37
2017-01-21T04:35:19.261Z,59.56
2017-01-21T04:36:28.267Z,59.47
2017-01-21T04:37:37.241Z,59.47
2017-01-21T04:38:46.212Z,59.47
2017-01-21T04:39:55.201Z,59.37
2017-01-21T04:41:04.190Z,59.84
2017-01-21T04:42:13.176Z,59.47
2017-01-21T04:43:22.159Z,59.47
2017-01-21T04:44:31.137Z,59.94
2017-01-21T04:45:40.112Z,60.13
2017-01-21T04:46:49.100Z,60.23
2017-01-21T04:47:58.093Z,59.84
2017-01-21T04:49:07.075Z,60.04
2017-01-21T04:50:16.058Z,59.75
2017-01-21T04:51:25.029Z,59.47
2017-01-21T04:52:34.017Z,59.27
2017-01-21T04:53:43.106Z,59.47
2017-01-21T04:54:52.086Z,59.47
2017-01-21T04:56:01.071Z,59.47
2017-01-21T04:57:10.058Z,59.56
2017-01-21T04:58:19.043Z,59.94
2017-01-21T04:59:28.022Z,59.94
2017-01-21T05:00:37.010Z,60.04
2017-01-21T05:01:46.002Z,59.75
2017-01-21T05:02:54.984Z,60.13
2017-01-21T05:04:03.982Z,60.13
2017-01-21T05:05:12.967Z,60.13
2017-01-21T05:06:21.954Z,60.04
2017-01-21T05:07:30.935Z,59.94
2017-01-21T05:08:39.936Z,60.04
2017-01-21T05:09:48.920Z,59.75
2017-01-21T05:10:57.905Z,60.04
2017-01-21T05:12:06.881Z,60.04
2017-01-21T05:13:15.857Z,59.94
2017-01-21T05:14:24.855Z,59.94
2017-01-21T05:15:33.831Z,59.66
2017-01-21T05:16:42.818Z,60.42
2017-01-21T05:17:51.801Z,60.13
2017-01-21T05:19:00.809Z,59.75
2017-01-21T05:20:09.779Z,59.84
2017-01-21T05:21:18.760Z,60.04
2017-01-21T05:22:27.799Z,59.66
2017-01-21T05:23:36.787Z,59.66
2017-01-21T05:24:45.761Z,59.75
2017-01-21T05:25:54.766Z,59.94
2017-01-21T05:27:03.739Z,59.94
2017-01-21T05:28:12.736Z,59.94
2017-01-21T05:29:21.719Z,60.13
2017-01-21T05:30:30.700Z,60.23
2017-01-21T05:31:39.684Z,60.23
2017-01-21T05:32:48.677Z,60.13
2017-01-21T05:33:57.661Z,60.33
2017-01-21T05:35:06.655Z,60.13
2017-01-21T05:36:15.646Z,60.13
2017-01-21T05:37:24.627Z,60.04
2017-01-21T05:38:33.614Z,60.23
2017-01-21T05:39:42.604Z,59.75
2017-01-21T05:40:51.581Z,60.13
2017-01-21T05:42:00.568Z,60.04
2017-01-21T05:43:09.548Z,60.52
2017-01-21T05:44:18.556Z,60.52
2017-01-21T05:45:27.542Z,60.04
2017-01-21T05:46:36.525Z,60.71
2017-01-21T05:47:45.501Z,60.23
2017-01-21T05:48:54.481Z,60.33
2017-01-21T05:50:03.466Z,60.33
2017-01-21T05:51:12.445Z,60.42
2017-01-21T05:52:21.449Z,60.3
2017-01-21T05:53:30.447Z,60.61
2017-01-21T05:54:39.433Z,60.23
2017-01-21T05:55:48.450Z,60.23
2017-01-21T05:56:57.480Z,60.61
2017-01-21T05:58:06.466Z,60.42
2017-01-21T05:59:15.445Z,60.61
2017-01-21T06:00:24.431Z,60.61
2017-01-21T06:01:33.423Z,60.42
2017-01-21T06:02:42.413Z,60.61
2017-01-21T06:03:51.400Z,60.52
2017-01-21T06:05:00.376Z,60.42
2017-01-21T06:06:09.357Z,60.42
2017-01-21T06:07:18.341Z,60.61
2017-01-21T06:08:27.316Z,60.71
2017-01-21T06:09:36.306Z,60.61
2017-01-21T06:10:45.287Z,60.68
2017-01-21T06:11:54.281Z,60.71
2017-01-21T06:13:03.254Z,60.61
2017-01-21T06:14:12.257Z,60.71
2017-01-21T06:15:21.242Z,60.87
2017-01-21T06:16:30.250Z,60.96
2017-01-21T06:17:39.247Z,60.87
2017-01-21T06:18:48.338Z,60.99
2017-01-21T06:19:57.317Z,60.9
2017-01-21T06:21:06.415Z,60.52
2017-01-21T06:22:15.647Z,60.71
2017-01-21T06:23:24.642Z,60.71
2017-01-21T06:24:33.744Z,60.61
2017-01-21T06:25:42.811Z,60.3
2017-01-21T06:26:51.784Z,60.61
2017-01-21T06:28:00.774Z,60.71
2017-01-21T06:29:09.754Z,60.42
2017-01-21T06:30:18.729Z,60.61
2017-01-21T06:31:27.707Z,60.52
2017-01-21T06:32:36.755Z,60.42
2017-01-21T06:33:45.736Z,60.42
2017-01-21T06:34:54.736Z,60.42
2017-01-21T06:36:03.754Z,60.61
2017-01-21T06:37:12.741Z,60.61
2017-01-21T06:38:21.716Z,60.42
2017-01-21T06:39:30.708Z,60.42
2017-01-21T06:40:39.689Z,60.42
2017-01-21T06:41:48.717Z,60.99
2017-01-21T06:42:57.702Z,60.52
2017-01-21T06:44:06.686Z,60.9
2017-01-21T06:45:15.678Z,60.77
2017-01-21T06:46:24.660Z,60.52
2017-01-21T06:47:33.645Z,60.39
2017-01-21T06:48:42.636Z,60.61
2017-01-21T06:49:51.619Z,60.61
2017-01-21T06:51:00.587Z,60.58
2017-01-21T06:52:09.575Z,60.9
2017-01-21T06:53:18.557Z,60.61
2017-01-21T06:54:27.543Z,60.58
2017-01-21T06:55:36.520Z,60.99
2017-01-21T06:56:45.516Z,60.52
2017-01-21T06:57:54.509Z,60.96
2017-01-21T06:59:03.722Z,61.06
2017-01-21T07:00:12.691Z,60.61
2017-01-21T07:01:21.682Z,60.87
2017-01-21T07:02:30.752Z,60.77
2017-01-21T07:03:39.741Z,60.68
2017-01-21T07:04:48.728Z,60.87
2017-01-21T07:05:57.713Z,60.77
2017-01-21T07:07:06.717Z,60.77
2017-01-21T07:08:15.702Z,60.77
2017-01-21T07:09:24.700Z,60.87
2017-01-21T07:10:33.675Z,60.8
2017-01-21T07:11:42.656Z,60.96
2017-01-21T07:12:51.635Z,60.96
2017-01-21T07:14:00.627Z,60.68
2017-01-21T07:15:09.610Z,60.61
2017-01-21T07:16:18.608Z,60.71
2017-01-21T07:17:27.591Z,60.61
2017-01-21T07:18:36.573Z,60.71
2017-01-21T07:19:45.561Z,60.52
2017-01-21T07:20:54.537Z,60.61
2017-01-21T07:22:03.515Z,60.42
2017-01-21T07:23:12.499Z,60.52
2017-01-21T07:24:21.474Z,60.2
2017-01-21T07:25:30.473Z,60.49
2017-01-21T07:26:39.468Z,60.8
2017-01-21T07:27:48.457Z,60.61
2017-01-21T07:28:57.432Z,60.42
2017-01-21T07:30:06.407Z,60.9
2017-01-21T07:31:15.394Z,60.68
2017-01-21T07:32:24.381Z,60.77
2017-01-21T07:33:33.378Z,60.77
2017-01-21T07:34:42.353Z,60.96
2017-01-21T07:35:51.330Z,60.96
2017-01-21T07:37:00.398Z,61.35
2017-01-21T07:38:09.371Z,60.9
2017-01-21T07:39:18.355Z,61.09
2017-01-21T07:40:27.334Z,61.09
2017-01-21T07:41:36.308Z,60.61
2017-01-21T07:42:45.278Z,60.87
2017-01-21T07:43:54.271Z,60.87
2017-01-21T07:45:03.266Z,60.87
2017-01-21T07:46:12.253Z,60.77
2017-01-21T07:47:21.238Z,60.87
2017-01-21T07:48:30.211Z,60.99
2017-01-21T07:49:39.195Z,60.9
2017-01-21T07:50:48.175Z,60.87
2017-01-21T07:51:57.170Z,60.77
2017-01-21T07:53:06.149Z,60.96
2017-01-21T07:54:15.149Z,60.96
2017-01-21T07:55:24.129Z,61.25
2017-01-21T07:56:33.107Z,61.06
2017-01-21T07:57:42.094Z,61.25
2017-01-21T07:58:51.087Z,61.16
2017-01-21T08:00:00.071Z,61.35
2017-01-21T08:01:09.064Z,61.06
2017-01-21T08:02:18.048Z,62.4
2017-01-21T08:03:27.036Z,65.11
2017-01-21T08:04:36.026Z,66.57
2017-01-21T08:05:45.011Z,65.61
2017-01-21T08:06:54.025Z,65.94
2017-01-21T08:08:03.007Z,64.79
2017-01-21T08:09:11.986Z,66.03
2017-01-21T08:10:20.966Z,66.13
2017-01-21T08:11:29.961Z,66.13
2017-01-21T08:12:38.944Z,66.13
2017-01-21T08:13:47.917Z,67.76
2017-01-21T08:14:56.909Z,68.8
2017-01-21T08:16:05.895Z,69.7
2017-01-21T08:17:14.889Z,69.6
2017-01-21T08:18:23.868Z,70.37
2017-01-21T08:19:32.845Z,70.95
2017-01-21T08:20:41.833Z,71.23
2017-01-21T08:21:50.814Z,71.62
2017-01-21T08:22:59.826Z,71.23
2017-01-21T08:24:08.815Z,71.08
2017-01-21T08:25:17.808Z,71.66
2017-01-21T08:26:26.814Z,72.52
2017-01-21T08:27:35.798Z,72.61
2017-01-21T08:28:44.785Z,72.99
2017-01-21T08:29:53.759Z,71.84
2017-01-21T08:31:02.749Z,71.84
2017-01-21T08:32:11.725Z,71.37
2017-01-21T08:33:20.774Z,70.89
2017-01-21T08:34:30.291Z,70.79
2017-01-21T08:35:39.293Z,71.46
2017-01-21T08:36:48.289Z,71.37
2017-01-21T08:37:57.267Z,71.66
2017-01-21T08:39:06.246Z,71.17
2017-01-21T08:40:15.217Z,71.31
2017-01-21T08:41:24.217Z,71.11
2017-01-21T08:42:33.191Z,71.4
2017-01-21T08:43:42.178Z,71.21
2017-01-21T08:44:51.249Z,71.5
2017-01-21T08:46:00.238Z,71.31
2017-01-21T08:47:09.378Z,71.88
2017-01-21T08:48:19.109Z,71.69
2017-01-21T08:49:28.111Z,71.78
2017-01-21T08:50:37.096Z,72.07
2017-01-21T08:51:46.343Z,71.88
2017-01-21T08:52:55.837Z,72.07
2017-01-21T08:54:04.825Z,72.68
2017-01-21T08:55:13.875Z,72.49
2017-01-21T08:56:22.918Z,72.3
2017-01-21T08:57:32.611Z,71.82
2017-01-21T08:58:42.285Z,71.82
2017-01-21T08:59:51.648Z,71.92
2017-01-21T09:01:01.022Z,72.2
2017-01-21T09:02:10.076Z,71.34
2017-01-21T09:03:19.452Z,71.05
2017-01-21T09:04:28.441Z,71.44
2017-01-21T09:05:37.422Z,70.29
2017-01-21T09:06:47.325Z,70.76
2017-01-21T09:07:56.322Z,71.34
2017-01-21T09:09:06.103Z,71.44
2017-01-21T09:10:15.400Z,71.25
2017-01-21T09:11:24.936Z,70.57
2017-01-21T09:12:33.928Z,71.34
2017-01-21T09:13:42.920Z,71.44
2017-01-21T09:14:51.901Z,70.67
2017-01-21T09:16:00.879Z,70.19
2017-01-21T09:17:09.866Z,71.34
2017-01-21T09:18:18.842Z,70.48
2017-01-21T09:19:27.828Z,70.51
2017-01-21T09:20:36.820Z,70.32
2017-01-21T09:21:45.799Z,69.9
2017-01-21T09:22:54.794Z,71.25
2017-01-21T09:24:03.775Z,70.42
2017-01-21T09:25:12.761Z,71.47
2017-01-21T09:26:21.737Z,71.09
2017-01-21T09:27:30.734Z,70.23
2017-01-21T09:28:39.716Z,70.61
2017-01-21T09:29:48.726Z,70.8
2017-01-21T09:30:57.735Z,71.66
2017-01-21T09:32:06.722Z,72.05
2017-01-21T09:33:15.708Z,72.53
2017-01-21T09:34:24.703Z,74.06
2017-01-21T09:35:33.688Z,72.91
2017-01-21T09:36:42.671Z,72.05
2017-01-21T09:37:51.671Z,72.24
2017-01-21T09:39:00.662Z,71.47
2017-01-21T09:40:09.641Z,70.7
2017-01-21T09:41:18.630Z,70.23
2017-01-21T09:42:27.627Z,70.51
2017-01-21T09:43:36.628Z,70.42
2017-01-21T09:44:45.617Z,69.56
2017-01-21T09:45:54.592Z,68.5
2017-01-21T09:47:03.578Z,69.36
2017-01-21T09:48:12.565Z,70.13
2017-01-21T09:49:21.568Z,69.84
2017-01-21T09:50:30.556Z,69.74
2017-01-21T09:51:39.539Z,69.46
2017-01-21T09:52:48.538Z,70.51
2017-01-21T09:53:57.514Z,69.17
2017-01-21T09:55:06.507Z,69.01
2017-01-21T09:56:15.484Z,70.23
2017-01-21T09:57:24.463Z,70.45
2017-01-21T09:58:33.455Z,70.55
2017-01-21T09:59:42.493Z,70.07
2017-01-21T10:00:51.490Z,70.64
2017-01-21T10:02:00.633Z,70.84
2017-01-21T10:03:09.635Z,70.55
2017-01-21T10:04:18.841Z,69.87
2017-01-21T10:05:27.911Z,69.87
2017-01-21T10:06:36.923Z,69.97
2017-01-21T10:07:45.959Z,69.78
2017-01-21T10:08:54.987Z,69.78
2017-01-21T10:10:04.123Z,69.2
2017-01-21T10:11:13.219Z,69.11
2017-01-21T10:12:22.342Z,69.3
2017-01-21T10:13:31.577Z,69.49
2017-01-21T10:14:40.558Z,69.59
2017-01-21T10:15:49.684Z,69.4
2017-01-21T10:16:58.765Z,69.59
2017-01-21T10:18:07.750Z,69.14
2017-01-21T10:19:16.874Z,69.4
2017-01-21T10:20:26.076Z,69.14
2017-01-21T10:21:35.164Z,69.34
2017-01-21T10:22:44.237Z,69.34
2017-01-21T10:23:53.317Z,69.34
2017-01-21T10:25:02.560Z,69.53
2017-01-21T10:26:11.628Z,68.85
2017-01-21T10:27:20.656Z,69.62
2017-01-21T10:28:29.987Z,69.24
2017-01-21T10:29:39.057Z,69.05
2017-01-21T10:30:48.104Z,68.95
2017-01-21T10:31:57.208Z,69.34
2017-01-21T10:33:06.528Z,69.34
2017-01-21T10:34:15.603Z,69.43
2017-01-21T10:35:24.597Z,69.24
2017-01-21T10:36:33.591Z,69.85
2017-01-21T10:37:42.747Z,69.95
2017-01-21T10:38:52.080Z,69.85
2017-01-21T10:40:01.129Z,70.23
2017-01-21T10:41:10.152Z,70.14
2017-01-21T10:42:19.279Z,70.29
2017-01-21T10:43:28.828Z,70.49
2017-01-21T10:44:38.026Z,70.72
2017-01-21T10:45:47.160Z,70.52
2017-01-21T10:46:56.236Z,70.62
2017-01-21T10:48:05.248Z,70.9
2017-01-21T10:49:14.988Z,71.48
2017-01-21T10:50:24.064Z,71.19
2017-01-21T10:51:33.455Z,71.29
2017-01-21T10:52:42.734Z,71.58
2017-01-21T10:53:51.860Z,71.58
2017-01-21T10:55:01.225Z,71.58
2017-01-21T10:56:10.338Z,71.58
2017-01-21T10:57:19.435Z,71.67
2017-01-21T10:58:28.974Z,72.06
2017-01-21T10:59:38.051Z,71.58
2017-01-21T11:00:47.104Z,71.48
2017-01-21T11:01:56.278Z,71.67
2017-01-21T11:03:05.599Z,71.67
2017-01-21T11:04:14.906Z,71.77
2017-01-21T11:05:24.234Z,71.58
2017-01-21T11:06:33.221Z,71.29
2017-01-21T11:07:42.435Z,71.39
2017-01-21T11:08:51.470Z,71.29
2017-01-21T11:10:01.031Z,71
2017-01-21T11:11:10.142Z,70.94
2017-01-21T11:12:19.519Z,71.23
2017-01-21T11:13:29.366Z,71.04
2017-01-21T11:14:38.801Z,71.04
2017-01-21T11:15:47.947Z,71.04
2017-01-21T11:16:57.032Z,70.75
2017-01-21T11:18:06.136Z,71.42
2017-01-21T11:19:15.151Z,71.14
2017-01-21T11:20:24.243Z,71.14
2017-01-21T11:21:33.251Z,71.14
2017-01-21T11:22:42.310Z,70.94
2017-01-21T11:23:51.297Z,70.65
2017-01-21T11:25:00.292Z,70.65
2017-01-21T11:26:09.288Z,71.23
2017-01-21T11:27:18.271Z,71.91
2017-01-21T11:28:27.279Z,70.65
2017-01-21T11:29:36.266Z,71.91
2017-01-21T11:30:45.253Z,71.33
2017-01-21T11:31:54.242Z,70.68
2017-01-21T11:33:03.222Z,69.31
2017-01-21T11:34:12.478Z,69.31
2017-01-21T11:35:21.460Z,68.92
2017-01-21T11:36:30.449Z,68.92
2017-01-21T11:37:39.432Z,68.92
2017-01-21T11:38:48.435Z,68.57
2017-01-21T11:39:57.419Z,68.29
2017-01-21T11:41:06.409Z,68.83
2017-01-21T11:42:15.392Z,69.21
2017-01-21T11:43:24.384Z,68.83
2017-01-21T11:44:33.374Z,69.02
2017-01-21T11:45:42.369Z,69.21
2017-01-21T11:46:51.370Z,69.24
2017-01-21T11:48:00.372Z,68.73
2017-01-21T11:49:09.356Z,68.83
2017-01-21T11:50:18.360Z,69.15
2017-01-21T11:51:27.346Z,69.21
2017-01-21T11:52:36.364Z,69.24
2017-01-21T11:53:45.788Z,69.06
2017-01-21T11:54:54.768Z,69.34
2017-01-21T11:56:03.773Z,68.96
2017-01-21T11:57:12.759Z,69.44
2017-01-21T11:58:21.753Z,68.76
2017-01-21T11:59:30.732Z,69.34
2017-01-21T12:00:39.725Z,69.63
2017-01-21T12:01:48.731Z,69.34
2017-01-21T12:02:57.728Z,69.15
2017-01-21T12:04:06.741Z,69.73
2017-01-21T12:05:15.720Z,69.92
2017-01-21T12:06:24.709Z,69.53
2017-01-21T12:07:33.734Z,69.44
2017-01-21T12:08:42.723Z,69.06
2017-01-21T12:09:51.714Z,69.53
2017-01-21T12:11:00.705Z,69.34
2017-01-21T12:12:09.689Z,69.15
2017-01-21T12:13:18.671Z,69.73
2017-01-21T12:14:27.665Z,69.53
2017-01-21T12:15:36.662Z,70.68
2017-01-21T12:16:45.656Z,69.53
2017-01-21T12:17:54.689Z,69.53
2017-01-21T12:19:03.678Z,70.5
2017-01-21T12:20:12.679Z,70.59
2017-01-21T12:21:21.683Z,70.4
2017-01-21T12:22:31.086Z,70.98
2017-01-21T12:23:40.105Z,70.68
2017-01-21T12:24:49.095Z,70.68
2017-01-21T12:25:58.081Z,70.53
2017-01-21T12:27:07.101Z,70.78
2017-01-21T12:28:16.103Z,70.5
2017-01-21T12:29:25.087Z,71.55
2017-01-21T12:30:34.073Z,71.59
2017-01-21T12:31:43.054Z,69.85
2017-01-21T12:32:52.029Z,71.01
2017-01-21T12:34:01.023Z,71.4
2017-01-21T12:35:10.010Z,70.59
2017-01-21T12:36:19.028Z,71.59
2017-01-21T12:37:28.002Z,71.49
2017-01-21T12:38:37.008Z,70.62
2017-01-21T12:39:46.005Z,71.3
2017-01-21T12:40:54.997Z,72.36
2017-01-21T12:42:03.989Z,71.11
2017-01-21T12:43:12.960Z,70.72
2017-01-21T12:44:21.958Z,71.4
2017-01-21T12:45:30.957Z,71.69
2017-01-21T12:46:39.948Z,71.88
2017-01-21T12:47:48.934Z,71.49
2017-01-21T12:48:57.926Z,71.69
2017-01-21T12:50:06.911Z,70.53
2017-01-21T12:51:15.896Z,69.95
2017-01-21T12:52:24.879Z,71.78
2017-01-21T12:53:33.877Z,71.4
2017-01-21T12:54:42.878Z,71.49
2017-01-21T12:55:51.867Z,70.62
2017-01-21T12:57:00.863Z,71.97
2017-01-21T12:58:09.841Z,71.88
2017-01-21T12:59:18.852Z,71.49
2017-01-21T13:00:27.838Z,71.78
2017-01-21T13:01:36.819Z,72.65
2017-01-21T13:02:45.808Z,72.17
2017-01-21T13:03:54.801Z,72.07
2017-01-21T13:05:03.775Z,71.49
2017-01-21T13:06:12.770Z,72.65
2017-01-21T13:07:21.802Z,71.4
2017-01-21T13:08:30.782Z,72.26
2017-01-21T13:09:39.805Z,72.26
2017-01-21T13:10:48.784Z,71.97
2017-01-21T13:11:57.778Z,71.59
2017-01-21T13:13:06.772Z,71.78
2017-01-21T13:14:15.762Z,72.17
2017-01-21T13:15:24.761Z,71.59
2017-01-21T13:16:33.749Z,72.17
2017-01-21T13:17:42.736Z,71.59
2017-01-21T13:18:51.716Z,71.69
2017-01-21T13:20:00.708Z,71.97
2017-01-21T13:21:09.691Z,71.78
2017-01-21T13:22:18.683Z,71.97
2017-01-21T13:23:27.678Z,72.07
2017-01-21T13:24:36.670Z,71.97
2017-01-21T13:25:45.652Z,71.88
2017-01-21T13:26:54.635Z,71.88
2017-01-21T13:28:04.048Z,71.69
2017-01-21T13:29:13.032Z,71.97
2017-01-21T13:30:22.015Z,71.78
2017-01-21T13:31:31.020Z,71.97
2017-01-21T13:32:40.007Z,71.4
2017-01-21T13:33:49.006Z,71.97
2017-01-21T13:34:58.004Z,71.88
2017-01-21T13:36:07.000Z,72.55
2017-01-21T13:37:15.975Z,71.49
2017-01-21T13:38:24.967Z,71.69
2017-01-21T13:39:33.946Z,72.17
2017-01-21T13:40:42.954Z,71.97
2017-01-21T13:41:51.956Z,71.88
2017-01-21T13:43:00.934Z,71.97
2017-01-21T13:44:09.934Z,72.55
2017-01-21T13:45:18.932Z,72.07
2017-01-21T13:46:27.945Z,71.69
2017-01-21T13:47:36.932Z,71.59
2017-01-21T13:48:45.928Z,71.97
2017-01-21T13:49:54.913Z,71.97
2017-01-21T13:51:03.938Z,71.97
2017-01-21T13:52:12.924Z,71.69
2017-01-21T13:53:21.912Z,71.97
2017-01-21T13:54:30.904Z,72.07
2017-01-21T13:55:39.900Z,71.49
2017-01-21T13:56:48.894Z,72.17
2017-01-21T13:57:57.867Z,72.07
2017-01-21T13:59:06.855Z,71.69
2017-01-21T14:00:15.852Z,71.78
2017-01-21T14:01:24.840Z,72.45
2017-01-21T14:02:33.839Z,71.97
2017-01-21T14:03:42.829Z,71.97
2017-01-21T14:04:51.823Z,72.17
2017-01-21T14:06:00.815Z,71.97
2017-01-21T14:07:09.817Z,71.69
2017-01-21T14:08:18.806Z,72.17
2017-01-21T14:09:27.807Z,71.97
2017-01-21T14:10:36.789Z,71.88
2017-01-21T14:11:45.773Z,72.36
2017-01-21T14:12:54.765Z,72.17
2017-01-21T14:14:03.758Z,71.69
2017-01-21T14:15:12.748Z,71.97
2017-01-21T14:16:21.737Z,71.97
2017-01-21T14:17:30.710Z,71.4
2017-01-21T14:18:39.697Z,72.07
2017-01-21T14:19:48.698Z,71.69
2017-01-21T14:20:57.697Z,71.49
2017-01-21T14:22:06.687Z,71.97
2017-01-21T14:23:15.684Z,71.78
2017-01-21T14:24:24.670Z,72.26
2017-01-21T14:25:33.704Z,71.78
2017-01-21T14:26:42.697Z,71.97
2017-01-21T14:27:51.700Z,71.97
2017-01-21T14:29:00.686Z,71.97
2017-01-21T14:30:09.667Z,71.97
2017-01-21T14:31:18.667Z,71.97
2017-01-21T14:32:27.674Z,72.17
2017-01-21T14:33:36.663Z,71.97
2017-01-21T14:34:46.063Z,71.97
2017-01-21T14:35:55.060Z,72.2
2017-01-21T14:37:04.048Z,71.59
2017-01-21T14:38:13.039Z,70.72
2017-01-21T14:39:22.041Z,69.85
2017-01-21T14:40:31.155Z,69.67
2017-01-21T14:41:40.160Z,68.99
2017-01-21T14:42:49.148Z,67.26
2017-01-21T14:43:58.158Z,67.35
2017-01-21T14:45:07.148Z,66.97
2017-01-21T14:46:16.198Z,66.58
2017-01-21T14:47:25.177Z,67.45
2017-01-21T14:48:34.183Z,67.35
2017-01-21T14:49:43.179Z,67.35
2017-01-21T14:50:52.204Z,67.45